Time;durP1;ratioP1;P1;durP2;ratioP2;P2;SDS_P1;SDS_P2;PMS_P1;PMS_P2;Temp;Humidity;BMP_temperature;BMP_pressure;BME280_temperature;BME280_humidity;BME280_pressure;Samples;Min_cycle;Max_cycle;Signal;HPM_P1;HPM_P2
2023/01/03 00:00:34;;;;;;;1.35;0.70;;;11.00;99.90;;;;;;5052951;28;20423;-45
2023/01/03 00:03:00;;;;;;;1.65;0.90;;;11.00;99.90;;;;;;5052566;28;20029;-45
2023/01/03 00:05:26;;;;;;;1.20;0.80;;;10.90;99.90;;;;;;5052566;28;20028;-44
2023/01/03 00:07:51;;;;;;;1.20;0.50;;;10.90;99.90;;;;;;5052195;28;20387;-43
2023/01/03 00:10:17;;;;;;;0.70;0.50;;;10.90;99.90;;;;;;5052262;28;20040;-44
2023/01/03 00:12:42;;;;;;;0.93;0.60;;;10.90;99.90;;;;;;5052351;28;20100;-44
2023/01/03 00:15:09;;;;;;;2.17;0.63;;;10.90;99.90;;;;;;5052498;28;20079;-44
2023/01/03 00:17:35;;;;;;;1.02;0.70;;;10.90;99.90;;;;;;5052199;28;20025;-44
2023/01/03 00:20:00;;;;;;;1.45;0.70;;;10.90;99.90;;;;;;5053167;28;20021;-45
2023/01/03 00:22:30;;;;;;;0.77;0.68;;;10.90;99.90;;;;;;5052327;28;20031;-44
2023/01/03 00:24:56;;;;;;;0.93;0.70;;;10.90;99.90;;;;;;5052109;28;20052;-45
2023/01/03 00:27:21;;;;;;;1.10;0.57;;;10.90;99.90;;;;;;5052022;28;20072;-44
2023/01/03 00:29:47;;;;;;;0.98;0.60;;;10.90;99.90;;;;;;5052037;28;20032;-44
2023/01/03 00:32:13;;;;;;;1.35;0.73;;;10.90;99.90;;;;;;5052392;28;20032;-45
2023/01/03 00:34:39;;;;;;;1.63;0.52;;;10.90;99.90;;;;;;5052052;28;20025;-45
2023/01/03 00:37:04;;;;;;;1.33;0.60;;;10.90;99.90;;;;;;5051548;28;20363;-44
2023/01/03 00:39:30;;;;;;;2.47;0.73;;;10.90;99.90;;;;;;5051774;28;20048;-45
2023/01/03 00:41:55;;;;;;;1.08;0.60;;;10.90;99.90;;;;;;5051828;28;20025;-44
2023/01/03 00:44:21;;;;;;;1.42;0.77;;;10.90;99.90;;;;;;5051836;28;20032;-44
2023/01/03 00:46:47;;;;;;;1.00;0.70;;;10.90;99.90;;;;;;5051395;28;20072;-44
2023/01/03 00:49:12;;;;;;;0.98;0.60;;;10.90;99.90;;;;;;5051724;28;20021;-45
2023/01/03 00:51:40;;;;;;;1.00;0.65;;;10.90;99.90;;;;;;5051549;28;20025;-44
2023/01/03 00:54:07;;;;;;;0.77;0.60;;;10.90;99.90;;;;;;5051652;28;20050;-44
2023/01/03 00:56:37;;;;;;;2.50;0.60;;;10.90;99.90;;;;;;5051481;28;20047;-45
2023/01/03 00:59:04;;;;;;;1.25;0.60;;;10.80;99.90;;;;;;5051682;28;20376;-44
2023/01/03 01:01:34;;;;;;;0.70;0.50;;;10.90;99.90;;;;;;5051465;28;20082;-45
2023/01/03 01:04:12;;;;;;;0.73;0.60;;;10.80;99.90;;;;;;5051574;28;20474;-43
2023/01/03 01:06:41;;;;;;;0.88;0.60;;;10.80;99.90;;;;;;5051208;28;20509;-44
2023/01/03 01:09:11;;;;;;;0.80;0.50;;;10.80;99.90;;;;;;5051459;28;20529;-44
2023/01/03 01:11:37;;;;;;;1.58;0.80;;;10.80;99.90;;;;;;5051528;28;20024;-44
2023/01/03 01:14:03;;;;;;;1.77;0.63;;;10.80;99.90;;;;;;5052069;28;20375;-44
2023/01/03 01:16:45;;;;;;;1.73;0.70;;;10.90;99.90;;;;;;5051021;28;20446;-44
2023/01/03 01:19:11;;;;;;;1.23;0.50;;;10.80;99.90;;;;;;5049887;28;20386;-44
2023/01/03 01:21:36;;;;;;;1.08;0.50;;;10.80;99.90;;;;;;5051354;28;20108;-44
2023/01/03 01:24:02;;;;;;;1.15;0.70;;;10.80;99.90;;;;;;5051341;28;20123;-44
2023/01/03 01:26:28;;;;;;;0.88;0.63;;;10.80;99.90;;;;;;5050928;28;20021;-43
2023/01/03 01:28:54;;;;;;;0.60;0.40;;;10.80;99.90;;;;;;5051135;28;20032;-45
2023/01/03 01:31:22;;;;;;;1.38;0.60;;;10.80;99.90;;;;;;5051002;28;20464;-45
2023/01/03 01:33:48;;;;;;;1.42;0.60;;;10.80;99.90;;;;;;5051376;28;20032;-45
2023/01/03 01:36:16;;;;;;;1.67;0.70;;;10.80;99.90;;;;;;5053184;28;20084;-44
2023/01/03 01:38:42;;;;;;;1.02;0.60;;;10.80;99.90;;;;;;5055480;28;20382;-43
2023/01/03 01:41:14;;;;;;;0.70;0.50;;;10.80;99.90;;;;;;5055338;28;20025;-45
2023/01/03 01:46:42;;;;;;;1.02;0.60;;;10.70;99.90;;;;;;5054944;28;20509;-45
2023/01/03 01:49:19;;;;;;;1.00;0.50;;;10.70;99.90;;;;;;5054970;28;20017;-44
2023/01/03 01:51:45;;;;;;;2.80;0.55;;;10.70;99.90;;;;;;5055239;28;20486;-45
2023/01/03 01:54:11;;;;;;;1.02;0.57;;;10.70;99.90;;;;;;5055057;28;20020;-45
2023/01/03 01:56:49;;;;;;;1.33;0.50;;;10.70;99.90;;;;;;5054821;28;20033;-44
2023/01/03 01:59:15;;;;;;;0.95;0.50;;;10.70;99.90;;;;;;5055103;28;20036;-45
2023/01/03 02:01:44;;;;;;;0.70;0.50;;;10.70;99.90;;;;;;5055096;28;20025;-44
2023/01/03 02:04:22;;;;;;;0.70;0.57;;;10.70;99.90;;;;;;5054984;28;20476;-45
2023/01/03 02:06:48;;;;;;;0.90;0.50;;;10.70;99.90;;;;;;5054642;28;20033;-45
2023/01/03 02:09:13;;;;;;;1.25;0.70;;;10.70;99.90;;;;;;5055122;28;20021;-45
2023/01/03 02:15:04;;;;;;;0.63;0.50;;;10.70;99.90;;;;;;5055302;28;20040;-44
2023/01/03 02:17:48;;;;;;;0.73;0.50;;;10.70;99.90;;;;;;5054112;28;20495;-44
2023/01/03 02:20:22;;;;;;;1.48;0.47;;;10.70;99.90;;;;;;5054679;28;20648;-44
2023/01/03 02:23:06;;;;;;;1.38;0.50;;;10.70;99.90;;;;;;5054604;28;20082;-44
2023/01/03 02:25:49;;;;;;;0.60;0.57;;;10.70;99.90;;;;;;5054248;28;20468;-44
2023/01/03 02:28:36;;;;;;;0.50;0.35;;;10.70;99.90;;;;;;5054142;28;20445;-44
2023/01/03 02:31:13;;;;;;;0.82;0.57;;;10.70;99.90;;;;;;5054829;28;20025;-44
2023/01/03 02:33:57;;;;;;;0.80;0.60;;;10.70;99.90;;;;;;5054288;28;20033;-44
2023/01/03 02:36:50;;;;;;;0.73;0.43;;;10.60;99.90;;;;;;5054011;28;20123;-44
2023/01/03 02:39:16;;;;;;;0.80;0.50;;;10.60;99.90;;;;;;5054291;28;20029;-44
2023/01/03 02:42:56;;;;;;;0.68;0.50;;;10.70;99.90;;;;;;5054230;28;20032;-44
2023/01/03 02:45:03;;;;;;;0.90;0.55;;;10.70;99.90;;;;;;5054021;28;20052;-44
2023/01/03 02:47:34;;;;;;;1.15;0.50;;;10.70;99.90;;;;;;5052429;28;20036;-45
2023/01/03 02:50:03;;;;;;;1.30;0.80;;;10.60;99.90;;;;;;5054235;28;20025;-45
2023/01/03 02:52:31;;;;;;;2.15;0.50;;;10.60;99.90;;;;;;5054397;28;20067;-43
2023/01/03 02:55:22;;;;;;;1.23;0.60;;;10.60;99.90;;;;;;5054100;28;20044;-44
2023/01/03 02:57:59;;;;;;;1.08;0.55;;;10.60;99.90;;;;;;5054113;28;20013;-43
2023/01/03 03:00:28;;;;;;;1.73;0.60;;;10.60;99.90;;;;;;5054100;28;20021;-44
2023/01/03 03:02:59;;;;;;;1.02;0.70;;;10.60;99.90;;;;;;5053593;28;20036;-44
2023/01/03 03:05:31;;;;;;;0.90;0.70;;;10.60;99.90;;;;;;5053690;28;20017;-45
2023/01/03 03:07:56;;;;;;;0.90;0.60;;;10.60;99.90;;;;;;5053350;28;20024;-45
2023/01/03 03:13:28;;;;;;;1.25;0.70;;;10.50;99.90;;;;;;5053661;28;20437;-45
2023/01/03 03:15:56;;;;;;;1.00;0.70;;;10.60;99.90;;;;;;5053653;28;20390;-45
2023/01/03 03:18:26;;;;;;;1.38;0.57;;;10.50;99.90;;;;;;5053382;28;20064;-44
2023/01/03 03:26:37;;;;;;;1.52;0.60;;;10.60;99.90;;;;;;5053193;28;20071;-44
2023/01/03 03:29:09;;;;;;;2.35;0.85;;;10.50;99.90;;;;;;5053360;28;20100;-44
2023/01/03 03:31:39;;;;;;;1.83;0.60;;;10.50;99.90;;;;;;5053716;28;20024;-44
2023/01/03 03:34:25;;;;;;;2.25;0.68;;;10.50;99.90;;;;;;5053404;28;20462;-44
2023/01/03 03:37:01;;;;;;;1.70;0.70;;;10.50;99.90;;;;;;5052991;28;20064;-44
2023/01/03 03:45:18;;;;;;;0.77;0.60;;;10.50;99.90;;;;;;5052934;28;20047;-44
2023/01/03 03:48:04;;;;;;;0.80;0.57;;;10.50;99.90;;;;;;5052979;28;20391;-43
2023/01/03 03:50:45;;;;;;;1.48;0.73;;;10.50;99.90;;;;;;5052875;28;20021;-43
2023/01/03 03:53:13;;;;;;;1.08;0.70;;;10.50;99.90;;;;;;5053109;28;20544;-44
2023/01/03 03:55:40;;;;;;;3.15;0.57;;;10.50;99.90;;;;;;5052678;28;20072;-44
2023/01/03 03:58:17;;;;;;;1.25;0.70;;;10.50;99.90;;;;;;5051771;28;20025;-44
2023/01/03 04:00:46;;;;;;;1.40;0.75;;;10.50;99.90;;;;;;5052757;28;20057;-44
2023/01/03 04:03:14;;;;;;;1.20;0.57;;;10.40;99.90;;;;;;5052623;28;20060;-45
2023/01/03 04:05:44;;;;;;;1.13;0.77;;;10.50;99.90;;;;;;5052464;28;20410;-44
2023/01/03 04:08:10;;;;;;;0.88;0.60;;;10.40;99.90;;;;;;5052658;28;20024;-44
2023/01/03 04:10:36;;;;;;;2.00;0.70;;;10.50;99.90;;;;;;5052873;28;20491;-45
2023/01/03 04:13:02;;;;;;;0.93;0.63;;;10.50;99.90;;;;;;5052515;28;20021;-45
2023/01/03 04:15:28;;;;;;;2.28;0.60;;;10.40;99.90;;;;;;5052138;28;20395;-44
2023/01/03 04:17:54;;;;;;;0.75;0.60;;;10.40;99.90;;;;;;5051942;28;20032;-43
2023/01/03 04:20:19;;;;;;;1.65;0.80;;;10.40;99.90;;;;;;5052190;28;20100;-45
2023/01/03 04:22:45;;;;;;;2.63;0.60;;;10.40;99.90;;;;;;5052161;28;20032;-44
2023/01/03 04:25:11;;;;;;;0.82;0.50;;;10.40;99.90;;;;;;5052105;28;20549;-44
2023/01/03 04:27:36;;;;;;;1.17;0.57;;;10.40;99.90;;;;;;5051859;28;20025;-44
2023/01/03 04:30:03;;;;;;;1.45;0.60;;;10.40;99.90;;;;;;5052189;28;20032;-45
2023/01/03 04:32:29;;;;;;;1.35;0.70;;;10.40;99.90;;;;;;5052058;28;20033;-44
2023/01/03 04:34:55;;;;;;;2.90;0.80;;;10.40;99.90;;;;;;5052075;28;20048;-45
2023/01/03 04:37:20;;;;;;;0.40;0.40;;;10.40;99.90;;;;;;5051954;28;20339;-44
2023/01/03 04:39:46;;;;;;;1.63;0.70;;;10.40;99.90;;;;;;5052187;28;20039;-44
2023/01/03 04:44:56;;;;;;;0.95;0.60;;;10.30;99.90;;;;;;5052230;28;20036;-45
2023/01/03 04:47:21;;;;;;;1.45;0.70;;;10.30;99.90;;;;;;5051436;28;20029;-45
2023/01/03 04:49:47;;;;;;;1.05;0.57;;;10.30;99.90;;;;;;5051814;28;20021;-45
2023/01/03 04:52:14;;;;;;;1.85;0.60;;;10.30;99.90;;;;;;5052067;28;20076;-44
2023/01/03 04:54:40;;;;;;;0.75;0.60;;;10.30;99.90;;;;;;5051540;28;20036;-44
2023/01/03 04:57:06;;;;;;;1.10;0.60;;;10.20;99.90;;;;;;5051691;28;20025;-44
2023/01/03 04:59:32;;;;;;;2.22;0.73;;;10.20;99.90;;;;;;5051789;28;20036;-43
2023/01/03 05:01:57;;;;;;;0.98;0.52;;;10.20;99.90;;;;;;5051869;28;20032;-45
2023/01/03 05:04:23;;;;;;;0.90;0.73;;;10.30;99.90;;;;;;5051749;28;20032;-44
2023/01/03 05:06:51;;;;;;;0.82;0.68;;;10.20;99.90;;;;;;5051131;28;20021;-45
2023/01/03 05:09:17;;;;;;;1.10;0.80;;;10.20;99.90;;;;;;5051565;28;20029;-44
2023/01/03 05:11:43;;;;;;;3.33;0.80;;;10.20;99.90;;;;;;5051032;28;20032;-44
2023/01/03 05:14:08;;;;;;;2.90;0.88;;;10.20;99.90;;;;;;5051644;28;20040;-44
2023/01/03 05:16:34;;;;;;;3.58;1.38;;;10.20;99.90;;;;;;5051308;28;20064;-44
2023/01/03 05:19:00;;;;;;;5.50;1.20;;;10.20;99.90;;;;;;5051935;28;20375;-44
2023/01/03 05:26:56;;;;;;;1.50;0.80;;;10.20;99.90;;;;;;5051204;28;20040;-44
2023/01/03 05:29:22;;;;;;;2.47;0.98;;;10.20;99.90;;;;;;5051309;28;20036;-45
2023/01/03 05:31:48;;;;;;;2.50;1.17;;;10.20;99.90;;;;;;5051322;28;20025;-43
2023/01/03 05:34:14;;;;;;;1.95;1.20;;;10.20;99.90;;;;;;5051522;28;20482;-43
2023/01/03 05:36:40;;;;;;;2.25;1.05;;;10.20;99.90;;;;;;5049916;28;20533;-43
2023/01/03 05:39:06;;;;;;;2.10;1.08;;;10.20;99.90;;;;;;5051536;28;20031;-43
2023/01/03 05:44:17;;;;;;;1.77;0.93;;;10.20;99.90;;;;;;5051540;28;20510;-44
2023/01/03 05:46:42;;;;;;;1.92;1.00;;;10.20;99.90;;;;;;5050877;28;20030;-44
2023/01/03 05:49:08;;;;;;;2.80;1.00;;;10.10;99.90;;;;;;5050993;28;20357;-44
2023/01/03 05:51:34;;;;;;;2.97;1.20;;;10.10;99.90;;;;;;5050994;28;20053;-44
2023/01/03 05:53:59;;;;;;;2.47;1.00;;;10.10;99.90;;;;;;5051285;28;20029;-44
2023/01/03 05:56:25;;;;;;;3.38;1.02;;;10.10;99.90;;;;;;5050784;28;20112;-45
2023/01/03 05:58:50;;;;;;;2.90;1.30;;;10.10;99.90;;;;;;5050774;28;20021;-43
2023/01/03 06:01:16;;;;;;;1.35;0.90;;;10.10;99.90;;;;;;5051444;28;20025;-45
2023/01/03 06:03:46;;;;;;;3.85;1.13;;;10.10;99.90;;;;;;5050850;28;20036;-44
2023/01/03 06:06:14;;;;;;;1.42;0.90;;;10.10;99.90;;;;;;5050951;28;20045;-45
2023/01/03 06:08:40;;;;;;;1.63;0.93;;;10.10;99.90;;;;;;5050881;28;20525;-44
2023/01/03 06:11:11;;;;;;;2.45;1.10;;;10.10;99.90;;;;;;5051022;28;20029;-43
2023/01/03 06:13:37;;;;;;;3.40;1.00;;;10.10;99.90;;;;;;5050847;28;20547;-44
2023/01/03 06:18:50;;;;;;;1.40;1.00;;;10.00;99.90;;;;;;5050973;28;20037;-44
2023/01/03 06:21:16;;;;;;;2.20;0.90;;;10.00;99.90;;;;;;5051394;28;20033;-45
2023/01/03 06:23:41;;;;;;;1.95;0.85;;;10.00;99.90;;;;;;5054410;28;20028;-44
2023/01/03 06:26:07;;;;;;;2.30;1.00;;;10.00;99.90;;;;;;5054460;28;20478;-43
2023/01/03 06:28:33;;;;;;;3.00;0.88;;;10.00;99.90;;;;;;5054756;28;20061;-44
2023/01/03 06:30:58;;;;;;;3.10;0.98;;;10.00;99.90;;;;;;5054569;28;20107;-44
2023/01/03 06:33:24;;;;;;;1.08;0.75;;;10.00;99.90;;;;;;5054619;28;20025;-44
2023/01/03 06:35:49;;;;;;;3.88;1.15;;;10.00;99.90;;;;;;5054610;28;20100;-45
2023/01/03 06:38:15;;;;;;;4.25;1.00;;;9.90;99.90;;;;;;5054647;28;20437;-43
2023/01/03 06:40:47;;;;;;;3.60;1.05;;;10.00;99.90;;;;;;5054455;28;20090;-45
2023/01/03 06:43:12;;;;;;;2.35;1.17;;;10.00;99.90;;;;;;5054137;28;20048;-42
2023/01/03 06:53:52;;;;;;;3.55;1.40;;;9.90;99.90;;;;;;5054416;28;20062;-44
2023/01/03 06:56:18;;;;;;;1.65;1.02;;;9.90;99.90;;;;;;5053627;28;20044;-43
2023/01/03 06:58:43;;;;;;;2.03;1.20;;;9.90;99.90;;;;;;5054013;28;20025;-44
2023/01/03 07:01:13;;;;;;;3.75;1.40;;;9.90;99.90;;;;;;5054042;28;20064;-45
2023/01/03 07:03:38;;;;;;;5.43;1.63;;;9.90;99.90;;;;;;5053892;28;20060;-45
2023/01/03 07:06:04;;;;;;;3.30;1.85;;;9.90;99.90;;;;;;5053260;28;20067;-45
2023/01/03 07:08:30;;;;;;;3.28;1.75;;;9.90;99.90;;;;;;5053525;28;20043;-44
2023/01/03 07:10:55;;;;;;;4.55;1.58;;;9.90;99.90;;;;;;5054031;28;20032;-44
2023/01/03 07:16:05;;;;;;;;;;;9.80;99.90;;;;;;5054663;28;20087;-45
2023/01/03 07:18:31;;;;;;;3.53;2.05;;;9.80;99.90;;;;;;5085922;28;19971;-44
2023/01/03 07:20:57;;;;;;;5.03;2.88;;;9.80;99.90;;;;;;5053896;28;20032;-44
2023/01/03 07:23:23;;;;;;;2.67;2.30;;;9.80;99.90;;;;;;5053674;28;20032;-45
2023/01/03 07:25:48;;;;;;;5.50;4.05;;;9.80;99.90;;;;;;5053108;28;20024;-43
2023/01/03 07:28:15;;;;;;;4.20;3.72;;;9.80;99.90;;;;;;5053158;28;20036;-44
2023/01/03 07:30:43;;;;;;;3.65;2.67;;;9.80;99.90;;;;;;5053281;28;20021;-43
2023/01/03 07:33:10;;;;;;;2.97;2.30;;;9.80;99.90;;;;;;5052240;28;20050;-44
2023/01/03 07:35:36;;;;;;;4.40;2.65;;;9.80;99.90;;;;;;5053660;28;20033;-44
2023/01/03 07:38:03;;;;;;;3.05;2.50;;;9.80;99.90;;;;;;5052995;28;20017;-45
2023/01/03 07:40:29;;;;;;;2.67;2.08;;;9.80;99.90;;;;;;5053005;28;20082;-44
2023/01/03 07:45:44;;;;;;;5.15;2.90;;;9.80;99.90;;;;;;5053316;28;20031;-43
2023/01/03 07:48:10;;;;;;;3.83;2.90;;;9.80;99.90;;;;;;5051659;28;20483;-44
2023/01/03 07:50:36;;;;;;;6.28;3.00;;;9.80;99.90;;;;;;5052813;28;20035;-45
2023/01/03 07:53:03;;;;;;;3.08;2.58;;;9.80;99.90;;;;;;5053027;28;20017;-44
2023/01/03 07:55:30;;;;;;;3.78;2.70;;;9.80;99.90;;;;;;5053006;28;20136;-44
2023/01/03 07:57:56;;;;;;;4.85;2.97;;;9.80;99.90;;;;;;5052816;28;20413;-44
2023/01/03 08:00:21;;;;;;;3.88;2.70;;;9.80;99.90;;;;;;5052643;28;20032;-45
2023/01/03 08:02:47;;;;;;;3.40;2.58;;;9.80;99.90;;;;;;5053122;28;20115;-45
2023/01/03 08:05:13;;;;;;;3.15;2.15;;;9.70;99.90;;;;;;5052437;28;20439;-45
2023/01/03 08:07:38;;;;;;;5.65;2.60;;;9.80;99.90;;;;;;5052734;28;20663;-43
2023/01/03 08:15:35;;;;;;;7.28;3.15;;;9.40;99.90;;;;;;5052796;28;20071;-41
2023/01/03 08:18:02;;;;;;;5.70;3.20;;;9.30;99.90;;;;;;5052028;28;20057;-41
2023/01/03 08:20:28;;;;;;;5.63;3.25;;;9.20;99.90;;;;;;5052217;28;20028;-43
2023/01/03 08:22:54;;;;;;;6.68;3.70;;;9.20;99.90;;;;;;5052101;28;20025;-43
2023/01/03 08:25:20;;;;;;;7.28;4.28;;;9.20;99.90;;;;;;5051903;28;20027;-41
2023/01/03 08:27:45;;;;;;;9.93;4.35;;;9.30;99.90;;;;;;5051802;28;20033;-42
2023/01/03 08:30:11;;;;;;;7.50;3.92;;;9.30;99.90;;;;;;5052044;28;20036;-41
2023/01/03 08:32:37;;;;;;;9.52;4.30;;;9.30;99.90;;;;;;5051969;28;20020;-42
2023/01/03 08:35:04;;;;;;;6.65;3.53;;;9.30;99.90;;;;;;5051992;28;20049;-43
2023/01/03 08:37:30;;;;;;;6.60;3.10;;;9.30;99.90;;;;;;5051526;28;20029;-41
2023/01/03 08:40:00;;;;;;;6.90;3.40;;;9.40;99.90;;;;;;5051868;28;20035;-42
2023/01/03 08:42:26;;;;;;;5.38;3.22;;;9.40;99.90;;;;;;5051930;28;20039;-40
2023/01/03 08:45:00;;;;;;;5.63;3.03;;;9.40;99.90;;;;;;5051961;28;20025;-40
2023/01/03 08:47:27;;;;;;;;;;;9.40;99.90;;;;;;5051911;28;20020;-40
2023/01/03 08:49:54;;;;;;;9.07;2.85;;;9.50;99.90;;;;;;5051709;28;19912;-43
2023/01/03 08:52:20;;;;;;;3.97;2.80;;;9.50;99.90;;;;;;5051560;28;20100;-42
2023/01/03 08:54:45;;;;;;;8.02;3.45;;;9.50;99.90;;;;;;5051438;28;20120;-42
2023/01/03 08:57:11;;;;;;;6.53;3.40;;;9.50;99.90;;;;;;5051289;28;20029;-42
2023/01/03 08:59:36;;;;;;;8.77;3.30;;;9.50;99.90;;;;;;5051530;28;20505;-40
2023/01/03 09:02:02;;;;;;;5.13;2.95;;;9.50;99.90;;;;;;5051522;28;20033;-43
2023/01/03 09:04:28;;;;;;;5.80;3.40;;;9.60;99.90;;;;;;5051458;28;20108;-40
2023/01/03 09:06:53;;;;;;;7.38;3.15;;;9.60;99.90;;;;;;5051044;28;20028;-40
2023/01/03 09:09:19;;;;;;;5.82;3.40;;;9.60;99.90;;;;;;5051439;28;20025;-42
2023/01/03 09:11:45;;;;;;;5.85;3.30;;;9.60;99.90;;;;;;5051965;28;20274;-43
2023/01/03 09:14:10;;;;;;;4.32;3.15;;;9.60;99.90;;;;;;5051623;28;20036;-41
2023/01/03 09:16:36;;;;;;;5.85;2.90;;;9.70;99.90;;;;;;5050995;28;20032;-40
2023/01/03 09:19:02;;;;;;;4.93;3.17;;;9.60;99.90;;;;;;5051239;28;20025;-43
2023/01/03 09:21:28;;;;;;;6.57;3.50;;;9.70;99.90;;;;;;5051613;28;20468;-42
2023/01/03 09:23:54;;;;;;;5.05;3.05;;;9.70;99.90;;;;;;5051127;28;20032;-42
2023/01/03 09:26:20;;;;;;;4.82;2.70;;;9.70;99.90;;;;;;5050941;28;20491;-41
2023/01/03 09:28:46;;;;;;;5.68;3.03;;;9.70;99.90;;;;;;5051023;28;20043;-40
2023/01/03 09:31:12;;;;;;;4.93;2.95;;;9.70;99.90;;;;;;5051139;28;20503;-41
2023/01/03 09:33:37;;;;;;;4.70;2.83;;;9.70;99.90;;;;;;5051101;28;20033;-42
2023/01/03 09:36:03;;;;;;;4.32;2.53;;;9.70;99.90;;;;;;5050701;28;20067;-40
2023/01/03 09:38:29;;;;;;;6.70;2.97;;;9.70;99.90;;;;;;5050905;28;20035;-43
2023/01/03 09:41:07;;;;;;;3.95;2.70;;;9.80;99.90;;;;;;5051044;28;20021;-43
2023/01/03 09:43:39;;;;;;;8.68;3.90;;;9.80;99.90;;;;;;5051051;28;20029;-42
2023/01/03 09:46:10;;;;;;;7.72;3.45;;;9.80;99.90;;;;;;5051031;28;20027;-43
2023/01/03 09:48:38;;;;;;;4.75;3.10;;;9.80;99.90;;;;;;5051097;28;20017;-42
2023/01/03 10:03:42;;;;;;;4.03;2.80;;;9.80;99.90;;;;;;5051030;28;20021;-41
2023/01/03 10:05:14;;;;;;;4.97;3.03;;;9.90;99.90;;;;;;5054887;28;20039;-38
2023/01/03 10:07:49;;;;;;;7.82;3.33;;;9.90;99.90;;;;;;5054441;28;20021;-43
2023/01/03 10:10:37;;;;;;;5.38;2.90;;;10.00;99.90;;;;;;5055202;28;20076;-40
2023/01/03 10:13:25;;;;;;;7.70;3.63;;;9.90;99.90;;;;;;5053309;28;20036;-39
2023/01/03 10:16:11;;;;;;;5.55;3.40;;;9.80;99.90;;;;;;5054395;28;20045;-42
2023/01/03 10:19:01;;;;;;;8.48;3.80;;;9.80;99.90;;;;;;5054372;28;20359;-42
2023/01/03 10:21:32;;;;;;;4.72;3.08;;;9.80;99.90;;;;;;5054436;28;20532;-40
2023/01/03 10:23:58;;;;;;;5.00;2.78;;;9.80;99.90;;;;;;5054209;28;20029;-42
2023/01/03 10:26:25;;;;;;;6.60;3.00;;;9.80;99.90;;;;;;5054169;28;20025;-44
2023/01/03 10:28:52;;;;;;;5.55;2.83;;;9.70;99.90;;;;;;5054253;28;20096;-42
2023/01/03 10:31:39;;;;;;;6.85;3.25;;;9.70;99.90;;;;;;5054290;28;20025;-41
2023/01/03 10:34:06;;;;;;;8.43;3.05;;;9.70;99.90;;;;;;5054308;28;20477;-38
2023/01/03 10:36:31;;;;;;;5.03;3.08;;;9.70;99.90;;;;;;5053908;28;20028;-40
2023/01/03 10:39:06;;;;;;;5.78;2.97;;;9.80;99.90;;;;;;5054109;28;20401;-41
2023/01/03 10:41:40;;;;;;;4.30;2.40;;;9.90;99.90;;;;;;5054105;28;20104;-43
2023/01/03 10:44:06;;;;;;;6.22;2.33;;;9.90;99.90;;;;;;5053987;28;20036;-42
2023/01/03 10:46:31;;;;;;;4.45;2.50;;;10.00;99.90;;;;;;5053802;28;20474;-42
2023/01/03 10:49:19;;;;;;;4.95;2.47;;;10.10;99.90;;;;;;5053868;28;20383;-44
2023/01/03 10:52:17;;;;;;;4.97;2.92;;;10.10;99.90;;;;;;5054197;28;20112;-43
2023/01/03 10:54:51;;;;;;;4.38;2.92;;;10.20;99.90;;;;;;5054206;28;20471;-43
2023/01/03 10:57:43;;;;;;;4.28;2.70;;;10.30;99.90;;;;;;5054183;28;20029;-40
2023/01/03 11:00:23;;;;;;;4.45;2.35;;;10.40;99.90;;;;;;5053779;28;20033;-43
2023/01/03 11:02:49;;;;;;;4.38;2.70;;;10.50;99.90;;;;;;5053700;28;20147;-43
2023/01/03 11:05:21;;;;;;;6.20;2.95;;;10.50;99.90;;;;;;5053509;28;20035;-43
2023/01/03 11:07:54;;;;;;;3.72;2.72;;;10.60;99.90;;;;;;5052351;28;20043;-43
2023/01/03 11:10:22;;;;;;;3.85;2.38;;;10.60;99.90;;;;;;5053511;28;20021;-43
2023/01/03 11:12:48;;;;;;;3.67;2.45;;;10.60;99.90;;;;;;5053552;28;20021;-43
2023/01/03 11:15:13;;;;;;;5.68;2.60;;;10.60;99.90;;;;;;5053505;28;20032;-44
2023/01/03 11:17:55;;;;;;;3.78;2.22;;;10.70;99.90;;;;;;5053592;28;20036;-43
2023/01/03 11:20:38;;;;;;;4.45;2.47;;;10.70;99.90;;;;;;5052041;28;20021;-43
2023/01/03 11:23:14;;;;;;;4.15;2.30;;;10.70;99.90;;;;;;5053302;28;20032;-42
2023/01/03 11:25:51;;;;;;;4.35;2.60;;;10.80;99.90;;;;;;5053225;28;20021;-39
2023/01/03 11:28:35;;;;;;;3.28;2.25;;;10.80;99.90;;;;;;5053002;28;20155;-41
2023/01/03 11:31:19;;;;;;;7.60;2.10;;;10.80;99.90;;;;;;5053488;28;20383;-44
2023/01/03 11:34:05;;;;;;;4.18;2.10;;;10.80;99.90;;;;;;5053145;28;20034;-43
2023/01/03 11:36:57;;;;;;;3.53;1.98;;;10.80;99.90;;;;;;5052851;28;20025;-43
2023/01/03 11:39:26;;;;;;;3.45;2.03;;;10.80;99.90;;;;;;5053060;28;20029;-40
2023/01/03 11:42:07;;;;;;;2.53;1.77;;;10.80;99.90;;;;;;5052941;28;20541;-43
2023/01/03 11:44:52;;;;;;;3.60;2.13;;;10.80;99.90;;;;;;5052889;28;20037;-43
2023/01/03 11:47:49;;;;;;;3.38;1.83;;;10.80;99.90;;;;;;5052588;28;20029;-42
2023/01/03 11:50:40;;;;;;;2.67;1.70;;;10.80;99.90;;;;;;5035749;28;20398;-43
2023/01/03 11:53:28;;;;;;;3.55;2.03;;;10.80;99.90;;;;;;5052761;28;20406;-43
2023/01/03 11:56:09;;;;;;;3.40;1.63;;;10.90;99.90;;;;;;5052576;28;20120;-44
2023/01/03 11:58:57;;;;;;;2.33;1.65;;;10.80;99.90;;;;;;5051154;28;20029;-43
2023/01/03 12:01:37;;;;;;;2.53;1.40;;;10.80;99.90;;;;;;5052707;28;20086;-43
2023/01/03 12:04:31;;;;;;;3.28;1.60;;;10.90;99.90;;;;;;5052501;28;20017;-43
2023/01/03 12:06:57;;;;;;;3.73;1.40;;;10.90;99.90;;;;;;5052295;28;20425;-43
2023/01/03 12:09:22;;;;;;;2.15;1.42;;;10.80;99.90;;;;;;5052712;28;20021;-38
2023/01/03 12:12:14;;;;;;;2.50;1.58;;;10.90;99.90;;;;;;5052524;28;20021;-44
2023/01/03 12:14:56;;;;;;;2.13;1.50;;;10.80;99.90;;;;;;5052398;28;20519;-42
2023/01/03 12:17:40;;;;;;;2.70;1.48;;;10.80;99.90;;;;;;5051947;28;20041;-44
2023/01/03 12:20:18;;;;;;;2.55;1.52;;;10.80;99.90;;;;;;5051987;28;20029;-44
2023/01/03 12:23:26;;;;;;;3.17;1.67;;;10.80;99.90;;;;;;5052341;28;20040;-43
2023/01/03 12:25:59;;;;;;;2.17;1.40;;;10.80;99.90;;;;;;5052022;28;20388;-43
2023/01/03 12:28:40;;;;;;;3.10;1.80;;;10.80;99.90;;;;;;5052200;28;20090;-44
2023/01/03 12:31:18;;;;;;;3.08;1.58;;;10.80;99.90;;;;;;5052409;28;20086;-43
2023/01/03 12:33:58;;;;;;;2.45;1.30;;;10.80;99.90;;;;;;5052241;28;20127;-42
2023/01/03 12:36:32;;;;;;;3.50;1.83;;;10.80;99.90;;;;;;5050575;28;20067;-39
2023/01/03 12:39:29;;;;;;;2.72;1.48;;;10.80;99.90;;;;;;5052203;28;20457;-44
2023/01/03 12:42:22;;;;;;;2.88;1.40;;;10.80;99.90;;;;;;5052191;28;20037;-44
2023/01/03 12:45:12;;;;;;;2.80;1.50;;;10.70;99.90;;;;;;5051999;28;20033;-43
2023/01/03 12:48:01;;;;;;;4.80;1.38;;;10.70;99.90;;;;;;5051623;28;20056;-43
2023/01/03 12:50:37;;;;;;;2.97;1.40;;;10.70;99.90;;;;;;5051646;28;20037;-41
2023/01/03 12:53:17;;;;;;;3.10;1.45;;;10.70;99.90;;;;;;5051711;28;20171;-42
2023/01/03 12:56:14;;;;;;;3.55;1.75;;;10.70;99.90;;;;;;5051501;28;20028;-42
2023/01/03 12:58:58;;;;;;;2.83;1.60;;;10.70;99.90;;;;;;5046911;28;20048;-43
2023/01/03 13:01:33;;;;;;;3.03;1.40;;;10.70;99.90;;;;;;5051711;28;20028;-43
2023/01/03 13:04:01;;;;;;;;;;;10.70;99.90;;;;;;5051850;28;20487;-42
2023/01/03 13:06:50;;;;;;;2.47;1.60;;;10.70;99.90;;;;;;5083440;28;19912;-43
2023/01/03 13:09:25;;;;;;;4.13;1.60;;;10.70;99.90;;;;;;5048110;28;20037;-43
2023/01/03 13:11:54;;;;;;;3.85;1.50;;;10.60;99.90;;;;;;5051550;28;20039;-44
2023/01/03 13:14:22;;;;;;;2.80;1.65;;;10.60;99.90;;;;;;5051334;28;20104;-43
2023/01/03 13:17:03;;;;;;;2.83;1.50;;;10.60;99.90;;;;;;5051137;28;20033;-42
2023/01/03 13:19:35;;;;;;;3.22;1.52;;;10.60;99.90;;;;;;5051567;28;20402;-42
2023/01/03 13:22:04;;;;;;;1.75;1.35;;;10.60;99.90;;;;;;5051190;28;20033;-43
2023/01/03 13:24:46;;;;;;;2.40;1.80;;;10.60;99.90;;;;;;5051315;28;20119;-43
2023/01/03 13:27:18;;;;;;;2.58;1.40;;;10.60;99.90;;;;;;5051260;28;20032;-43
2023/01/03 13:29:49;;;;;;;2.67;1.48;;;10.60;99.90;;;;;;5051550;28;20021;-43
2023/01/03 13:32:24;;;;;;;3.42;1.50;;;10.60;99.90;;;;;;5050623;28;20017;-40
2023/01/03 13:34:55;;;;;;;;;;;10.60;99.90;;;;;;5051798;28;20033;-44
2023/01/03 13:37:26;;;;;;;2.63;1.92;;;10.60;99.90;;;;;;5050917;28;19936;-40
2023/01/03 13:39:51;;;;;;;4.28;1.95;;;10.60;99.90;;;;;;5051149;28;20025;-44
2023/01/03 13:42:26;;;;;;;3.30;1.60;;;10.60;99.90;;;;;;5051423;28;20117;-41
2023/01/03 13:45:12;;;;;;;1.98;1.38;;;10.60;99.90;;;;;;5051483;28;20029;-41
2023/01/03 13:47:42;;;;;;;2.13;1.25;;;10.60;99.90;;;;;;5050793;28;20025;-44
2023/01/03 13:50:40;;;;;;;4.53;1.63;;;10.60;99.90;;;;;;5049652;28;20490;-43
2023/01/03 13:53:09;;;;;;;4.18;1.40;;;10.60;99.90;;;;;;5028538;28;20366;-41
2023/01/03 13:55:56;;;;;;;2.08;1.38;;;10.60;99.90;;;;;;5050926;28;20120;-43
2023/01/03 13:58:39;;;;;;;2.60;1.40;;;10.60;99.90;;;;;;5051023;28;20389;-43
2023/01/03 14:01:22;;;;;;;5.38;1.63;;;10.60;99.90;;;;;;5051117;28;20025;-43
2023/01/03 14:04:18;;;;;;;2.33;1.30;;;10.60;99.90;;;;;;5051147;28;20029;-43
2023/01/03 14:07:04;;;;;;;2.55;1.27;;;10.50;99.90;;;;;;5050746;28;20021;-42
2023/01/03 14:09:50;;;;;;;3.65;1.40;;;10.60;99.90;;;;;;5051874;28;20343;-41
2023/01/03 14:12:40;;;;;;;4.13;1.75;;;10.50;99.90;;;;;;5051142;28;20029;-43
2023/01/03 14:15:18;;;;;;;2.78;1.10;;;10.50;99.90;;;;;;5051165;28;20394;-42
2023/01/03 14:17:48;;;;;;;4.45;1.50;;;10.50;99.90;;;;;;5050918;28;20108;-41